Time;durP1;ratioP1;P1;durP2;ratioP2;P2;SDS_P1;SDS_P2;PMS_P1;PMS_P2;Temp;Humidity;BMP_temperature;BMP_pressure;BME280_temperature;BME280_humidity;BME280_pressure;Samples;Min_cycle;Max_cycle;Signal;HPM_P1;HPM_P2
2022/08/28 00:01:23;;;;;;;0.95;0.75;;;;;;;;;;20809599;28;20285;-84
2022/08/28 00:11:25;;;;;;;1.20;0.73;;;;;;;;;;20784305;28;20228;-83
2022/08/28 00:21:28;;;;;;;1.73;1.10;;;;;;;;;;20838164;28;20237;-83
2022/08/28 00:31:30;;;;;;;2.58;1.17;;;;;;;;;;20831853;28;20226;-84
2022/08/28 00:41:33;;;;;;;1.40;0.90;;;23.40;99.90;;;;;;20818782;28;20219;-84
2022/08/28 01:01:57;;;;;;;1.95;0.80;;;;;;;;;;20823178;28;20566;-84
2022/08/28 01:12:02;;;;;;;1.25;0.68;;;;;;;;;;20849541;28;20250;-84
2022/08/28 01:22:23;;;;;;;1.40;0.70;;;;;;;;;;20813512;28;20225;-85
2022/08/28 01:32:39;;;;;;;1.65;0.82;;;;;;;;;;20808273;28;20576;-83
2022/08/28 01:42:42;;;;;;;1.75;0.75;;;;;;;;;;20821999;28;20284;-82
2022/08/28 01:52:46;;;;;;;1.40;0.63;;;;;;;;;;20820388;28;20223;-83
2022/08/28 02:02:48;;;;;;;2.35;1.08;;;;;;;;;;20757286;28;20221;-82
2022/08/28 02:12:50;;;;;;;1.58;0.60;;;;;;;;;;20744527;28;20714;-83
2022/08/28 02:22:52;;;;;;;2.22;1.35;;;;;;;;;;20738987;28;20285;-84
2022/08/28 02:32:54;;;;;;;1.38;0.68;;;;;;;;;;20736652;28;20201;-83
2022/08/28 02:42:55;;;;;;;1.10;0.80;;;;;;;;;;20769253;28;20271;-82
2022/08/28 02:52:58;;;;;;;1.50;0.85;;;;;;;;;;20777112;28;20930;-82
2022/08/28 03:03:00;;;;;;;1.63;0.90;;;;;;;;;;20917801;28;20675;-82
2022/08/28 03:13:01;;;;;;;1.88;0.90;;;;;;;;;;20896130;28;20245;-82
2022/08/28 03:33:24;;;;;;;1.63;0.80;;;;;;;;;;20903411;28;20206;-84
2022/08/28 03:43:26;;;;;;;2.10;0.85;;;;;;;;;;20899045;28;20270;-84
2022/08/28 03:53:28;;;;;;;2.38;0.95;;;21.50;99.90;;;;;;20895431;28;20249;-84
2022/08/28 04:03:30;;;;;;;2.95;0.75;;;;;;;;;;20892574;28;20695;-82
2022/08/28 04:13:32;;;;;;;3.13;0.90;;;;;;;;;;20869553;28;20226;-82
2022/08/28 04:23:34;;;;;;;1.10;0.70;;;;;;;;;;20825444;28;20231;-83
2022/08/28 04:33:37;;;;;;;1.65;0.80;;;21.60;99.90;;;;;;20811882;28;20209;-81
2022/08/28 04:43:39;;;;;;;1.42;0.80;;;;;;;;;;20813944;28;20366;-84
2022/08/28 04:53:41;;;;;;;1.42;0.50;;;;;;;;;;20786927;28;20224;-83
2022/08/28 05:03:44;;;;;;;1.00;0.80;;;;;;;;;;20787879;28;20227;-83
2022/08/28 05:13:45;;;;;;;2.45;0.88;;;;;;;;;;20745418;28;20218;-81
2022/08/28 05:23:48;;;;;;;1.95;0.82;;;;;;;;;;20726418;28;20234;-81
2022/08/28 05:33:51;;;;;;;2.33;0.80;;;;;;;;;;20755847;28;20250;-81
2022/08/28 05:43:53;;;;;;;1.38;0.70;;;;;;;;;;20707102;28;20238;-82
2022/08/28 05:53:56;;;;;;;2.03;0.85;;;;;;;;;;20749910;28;20228;-81
2022/08/28 06:04:04;;;;;;;2.08;0.70;;;21.40;99.90;;;;;;20806014;28;20217;-81
2022/08/28 06:14:11;;;;;;;2.17;0.55;;;21.70;99.90;;;;;;20815433;28;20214;-81
2022/08/28 06:24:14;;;;;;;2.13;0.65;;;;;;;;;;20799564;28;20221;-81
2022/08/28 06:34:15;;;;;;;1.27;0.60;;;;;;;;;;20815536;28;20211;-81
2022/08/28 06:44:19;;;;;;;1.20;0.60;;;;;;;;;;20895638;28;20316;-80
2022/08/28 06:54:21;;;;;;;2.95;0.90;;;;;;;;;;20881549;28;20321;-81
2022/08/28 07:16:43;;;;;;;1.52;0.65;;;;;;;;;;20804693;28;20226;-83
2022/08/28 07:27:49;;;;;;;1.60;0.88;;;;;;;;;;20826627;28;20704;-83
2022/08/28 07:38:25;;;;;;;1.27;0.63;;;;;;;;;;20517885;22;20708;31
2022/08/28 07:48:32;;;;;;;2.13;0.80;;;;;;;;;;20567515;28;20292;-70
2022/08/28 07:58:35;;;;;;;1.85;0.80;;;;;;;;;;20562770;28;20207;-70
2022/08/28 08:08:37;;;;;;;2.72;0.80;;;;;;;;;;20552834;28;20225;-72
2022/08/28 08:18:40;;;;;;;2.60;0.90;;;;;;;;;;20558886;28;20408;-72
2022/08/28 08:28:44;;;;;;;1.73;0.63;;;23.00;99.90;;;;;;20545196;28;20217;-72
2022/08/28 08:38:46;;;;;;;2.20;0.90;;;;;;;;;;20576357;28;20601;-72
2022/08/28 08:48:49;;;;;;;2.88;0.80;;;;;;;;;;20575824;28;20226;-72
2022/08/28 08:58:53;;;;;;;2.88;0.85;;;23.70;99.90;;;;;;20559671;28;20239;-72
2022/08/28 09:09:02;;;;;;;2.58;1.00;;;;;;;;;;20527903;28;20684;-72
2022/08/28 09:19:04;;;;;;;1.38;0.90;;;;;;;;;;20577167;28;20257;-72
2022/08/28 09:29:15;;;;;;;2.03;0.75;;;24.30;99.90;;;;;;20573056;28;20355;-72
2022/08/28 09:39:17;;;;;;;4.13;1.10;;;;;;;;;;20572451;28;20222;-72
2022/08/28 09:49:27;;;;;;;2.00;0.85;;;;;;;;;;20587730;28;20224;-72
2022/08/28 09:59:29;;;;;;;2.63;1.00;;;;;;;;;;20570710;28;20281;-73
2022/08/28 10:09:31;;;;;;;2.03;0.98;;;;;;;;;;20538570;28;20281;-72
2022/08/28 10:19:33;;;;;;;4.18;1.13;;;;;;;;;;20585083;28;20278;-72
2022/08/28 10:30:03;;;;;;;2.50;0.90;;;;;;;;;;20568265;28;20228;-73
2022/08/28 10:40:14;;;;;;;1.73;0.90;;;25.60;99.90;;;;;;20568337;28;20730;-73
2022/08/28 10:50:23;;;;;;;2.65;0.98;;;;;;;;;;20551193;28;20194;-73
2022/08/28 11:00:27;;;;;;;3.50;1.30;;;;;;;;;;20566265;28;20593;-73
2022/08/28 11:10:29;;;;;;;1.58;0.90;;;;;;;;;;20565218;28;20203;-73
2022/08/28 11:20:31;;;;;;;2.42;1.00;;;;;;;;;;20564695;28;20582;-73
2022/08/28 11:30:35;;;;;;;2.30;1.13;;;25.80;99.90;;;;;;20563912;28;20212;-73
2022/08/28 11:41:08;;;;;;;1.92;0.98;;;26.30;98.10;;;;;;20531132;28;20228;-73
2022/08/28 11:51:15;;;;;;;2.72;0.90;;;26.70;93.40;;;;;;20578463;28;20262;-73
2022/08/28 12:01:31;;;;;;;3.47;0.93;;;;;;;;;;20578666;28;20695;-75
2022/08/28 12:11:39;;;;;;;1.38;0.75;;;27.30;87.10;;;;;;20784800;22;20551;-69
2022/08/28 12:21:42;;;;;;;3.92;0.88;;;27.90;90.80;;;;;;20902313;28;20242;-70
2022/08/28 12:32:11;;;;;;;2.17;0.98;;;;;;;;;;20904325;28;20242;-70
2022/08/28 12:42:16;;;;;;;1.48;0.75;;;27.50;95.90;;;;;;20903814;28;20253;-69
2022/08/28 12:52:21;;;;;;;1.92;0.93;;;27.90;90.00;;;;;;20903845;28;20227;-70
2022/08/28 13:02:29;;;;;;;2.45;0.93;;;27.80;93.50;;;;;;20917466;28;20224;-70
2022/08/28 13:12:34;;;;;;;1.40;0.70;;;;;;;;;;20917818;28;20242;-70
2022/08/28 13:22:40;;;;;;;2.65;0.82;;;;;;;;;;20914689;28;20208;-69
2022/08/28 13:33:01;;;;;;;1.60;0.80;;;27.90;94.40;;;;;;20916020;28;20262;-69
2022/08/28 13:43:05;;;;;;;1.95;0.90;;;;;;;;;;20915414;28;20743;-70
2022/08/28 13:53:07;;;;;;;2.53;0.90;;;;;;;;;;20915006;28;20209;-69
2022/08/28 14:13:29;;;;;;;3.28;0.85;;;;;;;;;;20912269;28;20220;-70
2022/08/28 14:23:32;;;;;;;1.20;0.80;;;;;;;;;;20911065;28;20242;-70
2022/08/28 14:33:34;;;;;;;1.65;0.90;;;;;;;;;;20910382;28;20262;-70
2022/08/28 14:43:36;;;;;;;1.80;0.70;;;;;;;;;;20911022;28;20695;-70
2022/08/28 14:53:38;;;;;;;1.95;1.00;;;;;;;;;;20892347;28;20270;-70
2022/08/28 15:03:40;;;;;;;1.30;0.80;;;;;;;;;;20908875;28;20216;-70
2022/08/28 15:13:42;;;;;;;1.75;1.00;;;28.60;90.60;;;;;;20908087;28;20213;-69
2022/08/28 15:23:44;;;;;;;1.08;0.77;;;;;;;;;;20904861;28;20280;-69
2022/08/28 15:33:47;;;;;;;1.80;0.90;;;;;;;;;;20904614;28;20634;-69
2022/08/28 15:43:49;;;;;;;1.40;0.80;;;;;;;;;;20905490;28;20289;-70
2022/08/28 15:53:51;;;;;;;3.15;0.90;;;;;;;;;;20905228;28;20228;-70
2022/08/28 16:03:53;;;;;;;3.03;0.90;;;;;;;;;;20905178;28;20208;-70
2022/08/28 16:13:54;;;;;;;1.45;0.80;;;;;;;;;;20904767;28;20687;-70
2022/08/28 16:23:56;;;;;;;1.20;0.73;;;;;;;;;;20902976;28;20219;-70
2022/08/28 16:33:58;;;;;;;3.97;0.80;;;;;;;;;;20915317;28;20255;-70
2022/08/28 16:44:00;;;;;;;3.92;0.95;;;;;;;;;;20920379;28;20263;-69
2022/08/28 16:54:01;;;;;;;2.25;0.95;;;;;;;;;;20919933;28;20200;-69
2022/08/28 17:04:03;;;;;;;1.35;0.90;;;;;;;;;;20918602;28;20272;-70
2022/08/28 17:14:06;;;;;;;3.20;0.98;;;;;;;;;;20917630;28;20235;-69
2022/08/28 17:24:11;;;;;;;2.67;0.70;;;26.90;89.80;;;;;;20914834;28;20222;-69
2022/08/28 17:34:13;;;;;;;2.13;0.75;;;;;;;;;;20916767;28;20208;-72
2022/08/28 17:44:15;;;;;;;2.67;0.80;;;;;;;;;;20915068;28;20228;-69
2022/08/28 17:54:20;;;;;;;1.35;0.70;;;26.50;92.60;;;;;;20915299;28;20204;-70
2022/08/28 18:04:21;;;;;;;1.38;0.70;;;26.40;85.80;;;;;;20914085;28;20262;-69
2022/08/28 18:14:23;;;;;;;2.95;0.93;;;;;;;;;;20925368;22;20282;-73
2022/08/28 18:24:25;;;;;;;1.33;0.63;;;;;;;;;;20910138;28;20266;-73
2022/08/28 18:34:29;;;;;;;0.90;0.60;;;;;;;;;;20909271;28;20496;-74
2022/08/28 18:44:31;;;;;;;3.00;0.77;;;;;;;;;;20909696;28;20221;-71
2022/08/28 18:54:32;;;;;;;1.30;0.50;;;;;;;;;;20907557;28;20249;-72
2022/08/28 19:04:34;;;;;;;1.15;0.60;;;;;;;;;;20907924;28;20212;-72
2022/08/28 19:14:36;;;;;;;1.25;0.70;;;;;;;;;;20906401;28;20289;-73
2022/08/28 19:24:38;;;;;;;1.70;0.80;;;;;;;;;;20905021;28;20277;-73
2022/08/28 19:34:40;;;;;;;1.98;0.90;;;;;;;;;;20905864;28;20197;-72
2022/08/28 19:44:41;;;;;;;1.98;0.80;;;;;;;;;;20904350;28;20214;-73
2022/08/28 19:54:43;;;;;;;2.40;0.65;;;;;;;;;;20904544;28;20764;-73
2022/08/28 20:04:45;;;;;;;1.50;0.70;;;;;;;;;;20901702;28;20313;-72
2022/08/28 20:14:47;;;;;;;2.25;0.98;;;;;;;;;;20902039;28;20231;-72
2022/08/28 20:24:48;;;;;;;3.25;1.17;;;;;;;;;;20902260;28;20281;-70
2022/08/28 20:34:51;;;;;;;2.22;0.82;;;;;;;;;;20902291;28;20594;-73
2022/08/28 20:44:56;;;;;;;0.93;0.55;;;24.60;92.30;;;;;;20902181;28;20237;-72
2022/08/28 20:54:57;;;;;;;2.72;0.80;;;;;;;;;;20901399;28;20561;-71
2022/08/28 21:04:59;;;;;;;2.08;1.00;;;;;;;;;;20902315;28;20214;-71
2022/08/28 21:15:01;;;;;;;1.33;0.70;;;;;;;;;;20905763;28;20271;-72
2022/08/28 21:25:05;;;;;;;2.55;0.75;;;;;;;;;;20897856;28;20235;-72
2022/08/28 21:35:07;;;;;;;1.75;0.70;;;;;;;;;;20913798;28;20201;-72
2022/08/28 21:45:10;;;;;;;1.25;0.82;;;;;;;;;;20896545;28;20247;-71
2022/08/28 21:55:13;;;;;;;1.50;0.52;;;;;;;;;;20912717;28;20202;-71
2022/08/28 22:05:15;;;;;;;1.85;0.77;;;;;;;;;;20913302;28;20213;-72
2022/08/28 22:15:17;;;;;;;2.83;0.70;;;;;;;;;;20910468;28;20211;-72
2022/08/28 22:25:18;;;;;;;1.63;1.00;;;;;;;;;;20909882;28;20699;-72
2022/08/28 22:35:20;;;;;;;1.30;0.70;;;;;;;;;;20911594;28;20215;-71
2022/08/28 22:45:22;;;;;;;2.85;0.55;;;;;;;;;;20910649;28;20625;-72
2022/08/28 22:55:24;;;;;;;1.70;0.65;;;;;;;;;;20909484;28;20234;-71
2022/08/28 23:05:27;;;;;;;0.82;0.50;;;;;;;;;;20908148;28;20219;-72
2022/08/28 23:15:29;;;;;;;2.28;0.60;;;;;;;;;;20906218;28;20290;-71
2022/08/28 23:25:31;;;;;;;1.88;0.63;;;;;;;;;;20906804;28;20221;-71
2022/08/28 23:35:32;;;;;;;2.53;0.60;;;;;;;;;;20906201;28;20618;-71
2022/08/28 23:45:37;;;;;;;1.90;0.93;;;;;;;;;;20903940;28;20285;-72
2022/08/28 23:55:39;;;;;;;1.50;0.75;;;;;;;;;;20905656;28;20204;-71
